sensor_id;sensor_type;location;lat;lon;timestamp;pressure;altitude;pressure_sealevel;temperature;humidity
12969;BME280;6549;53.128;8.182;2023-02-20T00:01:53;101943.56;;;5.21;100.00
12969;BME280;6549;53.128;8.182;2023-02-20T00:04:54;101941.31;;;5.23;100.00
12969;BME280;6549;53.128;8.182;2023-02-20T00:07:54;101942.13;;;5.23;100.00
12969;BME280;6549;53.128;8.182;2023-02-20T00:10:55;101932.97;;;5.28;100.00
12969;BME280;6549;53.128;8.182;2023-02-20T00:13:55;101918.09;;;5.25;100.00
12969;BME280;6549;53.128;8.182;2023-02-20T00:16:55;101905.56;;;5.24;100.00
12969;BME280;6549;53.128;8.182;2023-02-20T00:19:56;101901.59;;;5.22;100.00
12969;BME280;6549;53.128;8.182;2023-02-20T00:22:56;101903.16;;;5.23;100.00
12969;BME280;6549;53.128;8.182;2023-02-20T00:25:56;101900.78;;;5.21;100.00
12969;BME280;6549;53.128;8.182;2023-02-20T00:28:57;101909.75;;;5.22;100.00
12969;BME280;6549;53.128;8.182;2023-02-20T00:31:57;101904.63;;;5.20;100.00
12969;BME280;6549;53.128;8.182;2023-02-20T00:34:58;101899.97;;;5.21;100.00
12969;BME280;6549;53.128;8.182;2023-02-20T00:37:58;101902.03;;;5.24;100.00
12969;BME280;6549;53.128;8.182;2023-02-20T00:40:58;101896.13;;;5.22;100.00
12969;BME280;6549;53.128;8.182;2023-02-20T00:43:59;101890.03;;;5.25;100.00
12969;BME280;6549;53.128;8.182;2023-02-20T00:46:59;101885.22;;;5.22;100.00
12969;BME280;6549;53.128;8.182;2023-02-20T00:49:59;101871.59;;;5.22;100.00
12969;BME280;6549;53.128;8.182;2023-02-20T00:53:00;101871.59;;;5.22;100.00
12969;BME280;6549;53.128;8.182;2023-02-20T00:56:02;101855.06;;;5.27;100.00
12969;BME280;6549;53.128;8.182;2023-02-20T00:59:02;101848.50;;;5.28;100.00
12969;BME280;6549;53.128;8.182;2023-02-20T01:02:03;101836.97;;;5.31;100.00
12969;BME280;6549;53.128;8.182;2023-02-20T01:05:03;101833.59;;;5.34;100.00
12969;BME280;6549;53.128;8.182;2023-02-20T01:08:04;101847.84;;;5.39;100.00
12969;BME280;6549;53.128;8.182;2023-02-20T01:11:04;101826.06;;;5.39;100.00
12969;BME280;6549;53.128;8.182;2023-02-20T01:14:05;101816.25;;;5.38;100.00
12969;BME280;6549;53.128;8.182;2023-02-20T01:17:05;101811.63;;;5.39;100.00
12969;BME280;6549;53.128;8.182;2023-02-20T01:20:06;101801.03;;;5.37;100.00
12969;BME280;6549;53.128;8.182;2023-02-20T01:23:07;101804.41;;;5.34;100.00
12969;BME280;6549;53.128;8.182;2023-02-20T01:26:08;101805.53;;;5.33;100.00
12969;BME280;6549;53.128;8.182;2023-02-20T01:29:08;101788.38;;;5.33;100.00
12969;BME280;6549;53.128;8.182;2023-02-20T01:32:12;101789.50;;;5.32;100.00
12969;BME280;6549;53.128;8.182;2023-02-20T01:35:13;101776.81;;;5.36;100.00
12969;BME280;6549;53.128;8.182;2023-02-20T01:38:14;101772.66;;;5.38;100.00
12969;BME280;6549;53.128;8.182;2023-02-20T01:41:14;101765.75;;;5.41;100.00
12969;BME280;6549;53.128;8.182;2023-02-20T01:44:23;101753.06;;;5.45;100.00
12969;BME280;6549;53.128;8.182;2023-02-20T01:47:24;101758.31;;;5.50;100.00
12969;BME280;6549;53.128;8.182;2023-02-20T01:50:35;101770.34;;;5.49;100.00
12969;BME280;6549;53.128;8.182;2023-02-20T01:53:36;101775.81;;;5.49;100.00
12969;BME280;6549;53.128;8.182;2023-02-20T01:56:37;101775.03;;;5.49;100.00
12969;BME280;6549;53.128;8.182;2023-02-20T01:59:38;101765.56;;;5.46;100.00
12969;BME280;6549;53.128;8.182;2023-02-20T02:02:42;101755.47;;;5.47;100.00
12969;BME280;6549;53.128;8.182;2023-02-20T02:05:46;101740.38;;;5.49;100.00
12969;BME280;6549;53.128;8.182;2023-02-20T02:08:48;101736.06;;;5.48;100.00
12969;BME280;6549;53.128;8.182;2023-02-20T02:11:48;101731.06;;;5.50;100.00
12969;BME280;6549;53.128;8.182;2023-02-20T02:14:49;101719.84;;;5.52;100.00
12969;BME280;6549;53.128;8.182;2023-02-20T02:18:02;101703.00;;;5.50;100.00
12969;BME280;6549;53.128;8.182;2023-02-20T02:28:02;101656.34;;;5.51;100.00
12969;BME280;6549;53.128;8.182;2023-02-20T02:41:21;101639.50;;;5.49;100.00
12969;BME280;6549;53.128;8.182;2023-02-20T02:44:46;101640.47;;;5.53;100.00
12969;BME280;6549;53.128;8.182;2023-02-20T02:48:15;101635.00;;;5.53;100.00
12969;BME280;6549;53.128;8.182;2023-02-20T02:51:20;101618.00;;;5.56;100.00
12969;BME280;6549;53.128;8.182;2023-02-20T02:54:25;101617.44;;;5.63;100.00
12969;BME280;6549;53.128;8.182;2023-02-20T02:57:26;101604.97;;;5.62;100.00
12969;BME280;6549;53.128;8.182;2023-02-20T03:00:38;101597.38;;;5.67;100.00
12969;BME280;6549;53.128;8.182;2023-02-20T03:03:42;101605.84;;;5.74;100.00
12969;BME280;6549;53.128;8.182;2023-02-20T03:06:45;101606.28;;;5.76;100.00
12969;BME280;6549;53.128;8.182;2023-02-20T03:10:03;101593.78;;;5.75;100.00
12969;BME280;6549;53.128;8.182;2023-02-20T03:13:05;101577.22;;;5.80;100.00
12969;BME280;6549;53.128;8.182;2023-02-20T03:16:08;101574.38;;;5.77;100.00
12969;BME280;6549;53.128;8.182;2023-02-20T03:19:12;101559.06;;;5.84;100.00
12969;BME280;6549;53.128;8.182;2023-02-20T03:22:24;101554.75;;;5.83;100.00
12969;BME280;6549;53.128;8.182;2023-02-20T03:25:38;101558.88;;;5.90;100.00
12969;BME280;6549;53.128;8.182;2023-02-20T03:28:43;101552.31;;;5.91;100.00
12969;BME280;6549;53.128;8.182;2023-02-20T03:32:06;101561.41;;;5.95;100.00
12969;BME280;6549;53.128;8.182;2023-02-20T03:35:28;101545.53;;;5.97;100.00
12969;BME280;6549;53.128;8.182;2023-02-20T03:38:55;101550.31;;;6.00;100.00
12969;BME280;6549;53.128;8.182;2023-02-20T03:42:18;101538.06;;;6.06;100.00
12969;BME280;6549;53.128;8.182;2023-02-20T03:45:39;101528.59;;;6.03;100.00
12969;BME280;6549;53.128;8.182;2023-02-20T03:48:45;101523.34;;;5.98;100.00
12969;BME280;6549;53.128;8.182;2023-02-20T03:51:47;101515.97;;;5.99;100.00
12969;BME280;6549;53.128;8.182;2023-02-20T03:54:48;101533.25;;;6.03;100.00
12969;BME280;6549;53.128;8.182;2023-02-20T03:57:52;101529.06;;;6.05;100.00
12969;BME280;6549;53.128;8.182;2023-02-20T04:00:57;101530.06;;;6.01;100.00
12969;BME280;6549;53.128;8.182;2023-02-20T04:04:02;101538.38;;;6.04;100.00
12969;BME280;6549;53.128;8.182;2023-02-20T04:07:07;101531.81;;;6.05;100.00
12969;BME280;6549;53.128;8.182;2023-02-20T04:10:13;101525.53;;;6.05;100.00
12969;BME280;6549;53.128;8.182;2023-02-20T04:13:16;101526.56;;;6.12;100.00
12969;BME280;6549;53.128;8.182;2023-02-20T04:16:18;101538.41;;;6.16;100.00
12969;BME280;6549;53.128;8.182;2023-02-20T04:19:19;101533.06;;;6.20;100.00
12969;BME280;6549;53.128;8.182;2023-02-20T04:22:24;101514.66;;;6.17;100.00
12969;BME280;6549;53.128;8.182;2023-02-20T04:25:36;101520.00;;;6.13;100.00
12969;BME280;6549;53.128;8.182;2023-02-20T04:28:39;101525.13;;;6.15;100.00
12969;BME280;6549;53.128;8.182;2023-02-20T04:31:39;101526.97;;;6.23;100.00
12969;BME280;6549;53.128;8.182;2023-02-20T04:34:40;101538.81;;;6.27;100.00
12969;BME280;6549;53.128;8.182;2023-02-20T04:37:40;101549.25;;;6.25;100.00
12969;BME280;6549;53.128;8.182;2023-02-20T04:40:40;101542.06;;;6.20;100.00
12969;BME280;6549;53.128;8.182;2023-02-20T04:43:41;101519.09;;;6.21;100.00
12969;BME280;6549;53.128;8.182;2023-02-20T04:46:41;101521.50;;;6.23;100.00
12969;BME280;6549;53.128;8.182;2023-02-20T04:49:41;101514.13;;;6.23;100.00
12969;BME280;6549;53.128;8.182;2023-02-20T04:52:42;101517.19;;;6.22;100.00
12969;BME280;6549;53.128;8.182;2023-02-20T04:55:42;101520.91;;;6.17;100.00
12969;BME280;6549;53.128;8.182;2023-02-20T04:58:45;101526.03;;;6.19;100.00
12969;BME280;6549;53.128;8.182;2023-02-20T05:01:46;101515.13;;;6.19;100.00
12969;BME280;6549;53.128;8.182;2023-02-20T05:04:51;101518.88;;;6.14;100.00
12969;BME280;6549;53.128;8.182;2023-02-20T05:07:56;101522.25;;;6.11;100.00
12969;BME280;6549;53.128;8.182;2023-02-20T05:10:57;101503.53;;;6.22;100.00
12969;BME280;6549;53.128;8.182;2023-02-20T05:13:57;101501.34;;;6.15;100.00
12969;BME280;6549;53.128;8.182;2023-02-20T05:16:57;101489.97;;;6.13;100.00
12969;BME280;6549;53.128;8.182;2023-02-20T05:19:58;101479.28;;;6.20;100.00
12969;BME280;6549;53.128;8.182;2023-02-20T05:22:58;101469.75;;;6.26;100.00
12969;BME280;6549;53.128;8.182;2023-02-20T05:25:58;101470.78;;;6.22;100.00
12969;BME280;6549;53.128;8.182;2023-02-20T05:28:58;101461.78;;;6.21;100.00
12969;BME280;6549;53.128;8.182;2023-02-20T05:31:59;101466.91;;;6.23;100.00
12969;BME280;6549;53.128;8.182;2023-02-20T05:34:59;101463.06;;;6.24;100.00
12969;BME280;6549;53.128;8.182;2023-02-20T05:37:59;101467.84;;;6.27;100.00
12969;BME280;6549;53.128;8.182;2023-02-20T05:41:00;101460.66;;;6.35;100.00
12969;BME280;6549;53.128;8.182;2023-02-20T05:44:00;101465.69;;;6.32;100.00
12969;BME280;6549;53.128;8.182;2023-02-20T05:47:01;101469.66;;;6.35;100.00
12969;BME280;6549;53.128;8.182;2023-02-20T05:50:01;101456.50;;;6.37;100.00
12969;BME280;6549;53.128;8.182;2023-02-20T05:53:01;101480.03;;;6.42;100.00
12969;BME280;6549;53.128;8.182;2023-02-20T05:56:02;101449.75;;;6.47;100.00
12969;BME280;6549;53.128;8.182;2023-02-20T05:59:02;101461.72;;;6.54;100.00
12969;BME280;6549;53.128;8.182;2023-02-20T06:02:03;101474.56;;;6.54;100.00
12969;BME280;6549;53.128;8.182;2023-02-20T06:05:04;101457.94;;;6.47;100.00
12969;BME280;6549;53.128;8.182;2023-02-20T06:08:05;101457.94;;;6.47;100.00
12969;BME280;6549;53.128;8.182;2023-02-20T06:11:06;101460.56;;;6.43;100.00
12969;BME280;6549;53.128;8.182;2023-02-20T06:14:08;101443.06;;;6.44;100.00
12969;BME280;6549;53.128;8.182;2023-02-20T06:17:08;101464.56;;;6.46;100.00
12969;BME280;6549;53.128;8.182;2023-02-20T06:20:09;101451.34;;;6.48;100.00
12969;BME280;6549;53.128;8.182;2023-02-20T06:23:09;101437.59;;;6.44;100.00
12969;BME280;6549;53.128;8.182;2023-02-20T06:26:10;101442.59;;;6.42;100.00
12969;BME280;6549;53.128;8.182;2023-02-20T06:29:12;101444.28;;;6.47;100.00
12969;BME280;6549;53.128;8.182;2023-02-20T06:32:13;101450.44;;;6.44;100.00
12969;BME280;6549;53.128;8.182;2023-02-20T06:35:13;101440.44;;;6.48;100.00
12969;BME280;6549;53.128;8.182;2023-02-20T06:38:14;101446.47;;;6.53;100.00
12969;BME280;6549;53.128;8.182;2023-02-20T06:41:15;101438.28;;;6.53;100.00
12969;BME280;6549;53.128;8.182;2023-02-20T06:44:15;101422.69;;;6.54;100.00
12969;BME280;6549;53.128;8.182;2023-02-20T06:47:15;101438.84;;;6.59;100.00
12969;BME280;6549;53.128;8.182;2023-02-20T06:50:16;101435.31;;;6.58;100.00
12969;BME280;6549;53.128;8.182;2023-02-20T06:53:16;101429.06;;;6.58;100.00
12969;BME280;6549;53.128;8.182;2023-02-20T06:56:20;101436.66;;;6.64;100.00
12969;BME280;6549;53.128;8.182;2023-02-20T06:59:20;101433.03;;;6.60;100.00
12969;BME280;6549;53.128;8.182;2023-02-20T07:02:20;101432.00;;;6.65;100.00
12969;BME280;6549;53.128;8.182;2023-02-20T07:05:21;101435.41;;;6.74;100.00
12969;BME280;6549;53.128;8.182;2023-02-20T07:08:21;101441.69;;;6.74;100.00
12969;BME280;6549;53.128;8.182;2023-02-20T07:11:22;101437.25;;;6.70;100.00
12969;BME280;6549;53.128;8.182;2023-02-20T07:14:23;101437.72;;;6.72;100.00
12969;BME280;6549;53.128;8.182;2023-02-20T07:17:23;101443.72;;;6.77;100.00
12969;BME280;6549;53.128;8.182;2023-02-20T07:20:24;101448.97;;;6.83;100.00
12969;BME280;6549;53.128;8.182;2023-02-20T07:23:24;101452.16;;;6.85;100.00
12969;BME280;6549;53.128;8.182;2023-02-20T07:26:26;101448.97;;;6.83;100.00
12969;BME280;6549;53.128;8.182;2023-02-20T07:29:27;101446.00;;;6.88;100.00
12969;BME280;6549;53.128;8.182;2023-02-20T07:32:27;101449.72;;;6.95;100.00
12969;BME280;6549;53.128;8.182;2023-02-20T07:35:27;101435.41;;;6.98;100.00
12969;BME280;6549;53.128;8.182;2023-02-20T07:38:28;101444.84;;;7.01;100.00
12969;BME280;6549;53.128;8.182;2023-02-20T07:41:30;101431.63;;;7.03;100.00
12969;BME280;6549;53.128;8.182;2023-02-20T07:44:36;101433.66;;;7.06;100.00
12969;BME280;6549;53.128;8.182;2023-02-20T07:47:36;101457.56;;;7.09;100.00
12969;BME280;6549;53.128;8.182;2023-02-20T07:50:37;101442.53;;;7.15;100.00
12969;BME280;6549;53.128;8.182;2023-02-20T07:53:37;101442.97;;;7.17;100.00
12969;BME280;6549;53.128;8.182;2023-02-20T07:56:39;101436.38;;;7.18;100.00
12969;BME280;6549;53.128;8.182;2023-02-20T07:59:40;101442.31;;;7.20;100.00
12969;BME280;6549;53.128;8.182;2023-02-20T08:02:40;101435.09;;;7.28;100.00
12969;BME280;6549;53.128;8.182;2023-02-20T08:05:41;101435.91;;;7.28;100.00
12969;BME280;6549;53.128;8.182;2023-02-20T08:08:41;101438.28;;;7.30;100.00
12969;BME280;6549;53.128;8.182;2023-02-20T08:11:41;101431.78;;;7.34;100.00
12969;BME280;6549;53.128;8.182;2023-02-20T08:14:42;101439.63;;;7.36;100.00
12969;BME280;6549;53.128;8.182;2023-02-20T08:17:42;101443.25;;;7.40;100.00
12969;BME280;6549;53.128;8.182;2023-02-20T08:20:42;101439.38;;;7.41;100.00
12969;BME280;6549;53.128;8.182;2023-02-20T08:23:43;101428.53;;;7.44;100.00
12969;BME280;6549;53.128;8.182;2023-02-20T08:26:44;101426.41;;;7.38;100.00
12969;BME280;6549;53.128;8.182;2023-02-20T08:29:45;101427.88;;;7.47;100.00
12969;BME280;6549;53.128;8.182;2023-02-20T08:32:45;101435.59;;;7.45;100.00
12969;BME280;6549;53.128;8.182;2023-02-20T08:35:46;101432.16;;;7.48;100.00
12969;BME280;6549;53.128;8.182;2023-02-20T08:38:48;101432.97;;;7.49;100.00
12969;BME280;6549;53.128;8.182;2023-02-20T08:41:49;101433.75;;;7.49;100.00
12969;BME280;6549;53.128;8.182;2023-02-20T08:44:49;101425.66;;;7.53;100.00
12969;BME280;6549;53.128;8.182;2023-02-20T08:47:50;101417.44;;;7.53;100.00
12969;BME280;6549;53.128;8.182;2023-02-20T08:50:50;101418.00;;;7.58;100.00
12969;BME280;6549;53.128;8.182;2023-02-20T08:53:51;101408.66;;;7.59;100.00
12969;BME280;6549;53.128;8.182;2023-02-20T08:56:51;101405.66;;;7.64;100.00
12969;BME280;6549;53.128;8.182;2023-02-20T08:59:51;101411.47;;;7.63;100.00
12969;BME280;6549;53.128;8.182;2023-02-20T09:02:52;101411.56;;;7.66;100.00
12969;BME280;6549;53.128;8.182;2023-02-20T09:05:52;101417.50;;;7.68;100.00
12969;BME280;6549;53.128;8.182;2023-02-20T09:08:55;101414.06;;;7.72;100.00
12969;BME280;6549;53.128;8.182;2023-02-20T09:11:56;101402.41;;;7.75;100.00
12969;BME280;6549;53.128;8.182;2023-02-20T09:14:56;101422.56;;;7.82;100.00
12969;BME280;6549;53.128;8.182;2023-02-20T09:17:59;101424.25;;;7.87;100.00
12969;BME280;6549;53.128;8.182;2023-02-20T09:20:59;101425.22;;;7.94;100.00
12969;BME280;6549;53.128;8.182;2023-02-20T09:24:00;101427.72;;;7.99;100.00
12969;BME280;6549;53.128;8.182;2023-02-20T09:27:01;101436.72;;;8.00;100.00
12969;BME280;6549;53.128;8.182;2023-02-20T09:30:03;101444.38;;;8.10;100.00
12969;BME280;6549;53.128;8.182;2023-02-20T09:33:04;101427.53;;;8.08;100.00
12969;BME280;6549;53.128;8.182;2023-02-20T09:36:04;101423.22;;;8.07;100.00
12969;BME280;6549;53.128;8.182;2023-02-20T09:39:05;101423.22;;;8.07;100.00
12969;BME280;6549;53.128;8.182;2023-02-20T09:42:21;101425.69;;;8.12;100.00
12969;BME280;6549;53.128;8.182;2023-02-20T09:45:30;101425.78;;;8.16;100.00
12969;BME280;6549;53.128;8.182;2023-02-20T09:51:59;101409.97;;;8.25;100.00
12969;BME280;6549;53.128;8.182;2023-02-20T09:55:05;101419.53;;;8.31;100.00
12969;BME280;6549;53.128;8.182;2023-02-20T09:58:27;101415.66;;;8.32;100.00
12969;BME280;6549;53.128;8.182;2023-02-20T10:01:30;101426.63;;;8.32;100.00
12969;BME280;6549;53.128;8.182;2023-02-20T10:04:36;101417.78;;;8.38;100.00
12969;BME280;6549;53.128;8.182;2023-02-20T10:07:38;101426.31;;;8.37;100.00
12969;BME280;6549;53.128;8.182;2023-02-20T10:10:41;101418.09;;;8.37;100.00
12969;BME280;6549;53.128;8.182;2023-02-20T10:17:53;101427.50;;;8.36;100.00
12969;BME280;6549;53.128;8.182;2023-02-20T10:27:36;101413.63;;;8.44;100.00
12969;BME280;6549;53.128;8.182;2023-02-20T10:33:54;101409.56;;;8.54;100.00
12969;BME280;6549;53.128;8.182;2023-02-20T10:37:03;101416.97;;;8.53;100.00
12969;BME280;6549;53.128;8.182;2023-02-20T10:40:12;101412.63;;;8.52;100.00
12969;BME280;6549;53.128;8.182;2023-02-20T10:43:23;101409.38;;;8.63;100.00
12969;BME280;6549;53.128;8.182;2023-02-20T10:49:45;101411.19;;;8.58;100.00
12969;BME280;6549;53.128;8.182;2023-02-20T10:52:53;101412.09;;;8.63;100.00
12969;BME280;6549;53.128;8.182;2023-02-20T10:59:49;101414.66;;;8.55;100.00
12969;BME280;6549;53.128;8.182;2023-02-20T11:03:00;101413.94;;;8.58;100.00
12969;BME280;6549;53.128;8.182;2023-02-20T11:06:04;101437.09;;;8.61;100.00
12969;BME280;6549;53.128;8.182;2023-02-20T11:09:06;101426.94;;;8.62;100.00
12969;BME280;6549;53.128;8.182;2023-02-20T11:12:24;101421.53;;;8.65;100.00
12969;BME280;6549;53.128;8.182;2023-02-20T11:15:28;101418.44;;;8.67;100.00
12969;BME280;6549;53.128;8.182;2023-02-20T11:18:34;101418.34;;;8.63;100.00
12969;BME280;6549;53.128;8.182;2023-02-20T11:21:44;101411.81;;;8.68;100.00
12969;BME280;6549;53.128;8.182;2023-02-20T11:24:46;101429.41;;;8.67;100.00
12969;BME280;6549;53.128;8.182;2023-02-20T11:27:49;101424.63;;;8.64;100.00
12969;BME280;6549;53.128;8.182;2023-02-20T11:31:02;101422.06;;;8.71;100.00
12969;BME280;6549;53.128;8.182;2023-02-20T11:34:04;101413.78;;;8.67;100.00
12969;BME280;6549;53.128;8.182;2023-02-20T11:37:04;101413.66;;;8.64;100.00
12969;BME280;6549;53.128;8.182;2023-02-20T11:40:16;101418.59;;;8.74;100.00
12969;BME280;6549;53.128;8.182;2023-02-20T11:43:24;101411.59;;;8.76;100.00
12969;BME280;6549;53.128;8.182;2023-02-20T11:46:26;101406.13;;;8.76;100.00
12969;BME280;6549;53.128;8.182;2023-02-20T11:49:27;101403.03;;;8.78;100.00
12969;BME280;6549;53.128;8.182;2023-02-20T11:52:28;101406.66;;;8.82;100.00
12969;BME280;6549;53.128;8.182;2023-02-20T11:55:28;101405.50;;;8.83;100.00
12969;BME280;6549;53.128;8.182;2023-02-20T11:58:28;101394.41;;;8.95;100.00
12969;BME280;6549;53.128;8.182;2023-02-20T12:01:33;101373.78;;;9.01;100.00
12969;BME280;6549;53.128;8.182;2023-02-20T12:04:36;101383.16;;;9.00;100.00
12969;BME280;6549;53.128;8.182;2023-02-20T12:10:44;101387.06;;;8.99;100.00
12969;BME280;6549;53.128;8.182;2023-02-20T12:13:47;101390.97;;;8.98;100.00
12969;BME280;6549;53.128;8.182;2023-02-20T12:16:53;101391.38;;;9.00;100.00
12969;BME280;6549;53.128;8.182;2023-02-20T12:20:03;101374.31;;;9.07;100.00
12969;BME280;6549;53.128;8.182;2023-02-20T12:23:16;101382.44;;;9.03;100.00
12969;BME280;6549;53.128;8.182;2023-02-20T12:27:08;101382.38;;;8.99;100.00
12969;BME280;6549;53.128;8.182;2023-02-20T12:30:04;101389.38;;;8.97;100.00
12969;BME280;6549;53.128;8.182;2023-02-20T12:33:43;101368.31;;;9.01;100.00
12969;BME280;6549;53.128;8.182;2023-02-20T12:47:30;101361.09;;;9.12;100.00
12969;BME280;6549;53.128;8.182;2023-02-20T12:50:41;101363.13;;;9.15;100.00
12969;BME280;6549;53.128;8.182;2023-02-20T12:54:11;101358.34;;;9.12;100.00
12969;BME280;6549;53.128;8.182;2023-02-20T12:57:22;101351.88;;;9.20;100.00
12969;BME280;6549;53.128;8.182;2023-02-20T13:00:39;101345.44;;;9.13;100.00
12969;BME280;6549;53.128;8.182;2023-02-20T13:07:06;101341.53;;;9.14;100.00
12969;BME280;6549;53.128;8.182;2023-02-20T13:10:15;101355.53;;;9.09;100.00
12969;BME280;6549;53.128;8.182;2023-02-20T13:13:17;101348.97;;;9.13;100.00
12969;BME280;6549;53.128;8.182;2023-02-20T13:16:30;101337.66;;;9.15;100.00
12969;BME280;6549;53.128;8.182;2023-02-20T13:19:48;101329.66;;;9.06;100.00
12969;BME280;6549;53.128;8.182;2023-02-20T13:29:36;101328.50;;;9.07;100.00
12969;BME280;6549;53.128;8.182;2023-02-20T13:32:36;101343.19;;;8.99;100.00
12969;BME280;6549;53.128;8.182;2023-02-20T13:38:40;101335.06;;;9.02;100.00
12969;BME280;6549;53.128;8.182;2023-02-20T13:44:53;101332.00;;;9.08;100.00
12969;BME280;6549;53.128;8.182;2023-02-20T13:51:31;101332.47;;;9.10;100.00
12969;BME280;6549;53.128;8.182;2023-02-20T13:54:32;101313.41;;;9.17;100.00
12969;BME280;6549;53.128;8.182;2023-02-20T13:57:51;101320.53;;;9.21;100.00
12969;BME280;6549;53.128;8.182;2023-02-20T14:00:53;101317.09;;;9.24;100.00
12969;BME280;6549;53.128;8.182;2023-02-20T14:04:04;101311.50;;;9.21;100.00
12969;BME280;6549;53.128;8.182;2023-02-20T14:07:05;101313.16;;;9.25;100.00
12969;BME280;6549;53.128;8.182;2023-02-20T14:10:15;101319.16;;;9.31;100.00
12969;BME280;6549;53.128;8.182;2023-02-20T14:13:21;101336.41;;;9.31;100.00
12969;BME280;6549;53.128;8.182;2023-02-20T14:16:27;101311.28;;;9.29;100.00
12969;BME280;6549;53.128;8.182;2023-02-20T14:19:29;101324.28;;;9.32;100.00
12969;BME280;6549;53.128;8.182;2023-02-20T14:22:32;101315.84;;;9.41;100.00
12969;BME280;6549;53.128;8.182;2023-02-20T14:25:33;101322.81;;;9.38;100.00
12969;BME280;6549;53.128;8.182;2023-02-20T14:28:34;101314.19;;;9.36;100.00
12969;BME280;6549;53.128;8.182;2023-02-20T14:31:35;101315.47;;;9.42;100.00
12969;BME280;6549;53.128;8.182;2023-02-20T14:34:53;101310.00;;;9.42;100.00
12969;BME280;6549;53.128;8.182;2023-02-20T14:38:18;101308.53;;;9.48;100.00
12969;BME280;6549;53.128;8.182;2023-02-20T14:41:23;101302.53;;;9.43;100.00
12969;BME280;6549;53.128;8.182;2023-02-20T14:44:24;101321.38;;;9.44;100.00
12969;BME280;6549;53.128;8.182;2023-02-20T14:47:24;101313.09;;;9.41;100.00
12969;BME280;6549;53.128;8.182;2023-02-20T14:50:32;101324.13;;;9.44;100.00
12969;BME280;6549;53.128;8.182;2023-02-20T14:53:33;101308.97;;;9.51;100.00
12969;BME280;6549;53.128;8.182;2023-02-20T14:56:33;101328.22;;;9.54;100.00
12969;BME280;6549;53.128;8.182;2023-02-20T14:59:36;101333.78;;;9.58;100.00
12969;BME280;6549;53.128;8.182;2023-02-20T15:02:41;101328.16;;;9.51;100.00
12969;BME280;6549;53.128;8.182;2023-02-20T15:05:41;101332.19;;;9.57;100.00
12969;BME280;6549;53.128;8.182;2023-02-20T15:08:43;101322.75;;;9.54;100.00
12969;BME280;6549;53.128;8.182;2023-02-20T15:11:52;101325.53;;;9.58;100.00
12969;BME280;6549;53.128;8.182;2023-02-20T15:15:03;101320.34;;;9.53;100.00
12969;BME280;6549;53.128;8.182;2023-02-20T15:21:09;101321.75;;;9.66;100.00
12969;BME280;6549;53.128;8.182;2023-02-20T15:24:29;101312.31;;;9.63;100.00
12969;BME280;6549;53.128;8.182;2023-02-20T15:27:32;101314.38;;;9.70;100.00
12969;BME280;6549;53.128;8.182;2023-02-20T15:30:32;101311.63;;;9.70;100.00
12969;BME280;6549;53.128;8.182;2023-02-20T15:33:35;101309.63;;;9.67;100.00
12969;BME280;6549;53.128;8.182;2023-02-20T15:36:36;101306.09;;;9.66;100.00
12969;BME280;6549;53.128;8.182;2023-02-20T15:39:40;101302.13;;;9.64;100.00
12969;BME280;6549;53.128;8.182;2023-02-20T15:42:40;101306.81;;;9.63;100.00
12969;BME280;6549;53.128;8.182;2023-02-20T15:45:41;101297.34;;;9.61;100.00
12969;BME280;6549;53.128;8.182;2023-02-20T15:48:41;101317.88;;;9.67;100.00
12969;BME280;6549;53.128;8.182;2023-02-20T15:51:42;101308.34;;;9.61;100.00
12969;BME280;6549;53.128;8.182;2023-02-20T15:54:47;101307.56;;;9.60;100.00
12969;BME280;6549;53.128;8.182;2023-02-20T15:57:53;101305.91;;;9.56;100.00
12969;BME280;6549;53.128;8.182;2023-02-20T16:00:56;101304.03;;;9.60;100.00
12969;BME280;6549;53.128;8.182;2023-02-20T16:03:56;101297.81;;;9.63;100.00
12969;BME280;6549;53.128;8.182;2023-02-20T16:06:56;101301.41;;;9.67;100.00
12969;BME280;6549;53.128;8.182;2023-02-20T16:09:57;101306.81;;;9.63;100.00
12969;BME280;6549;53.128;8.182;2023-02-20T16:12:59;101301.28;;;9.60;100.00
12969;BME280;6549;53.128;8.182;2023-02-20T16:16:08;101305.53;;;9.57;100.00
12969;BME280;6549;53.128;8.182;2023-02-20T16:19:18;101302.00;;;9.57;100.00
12969;BME280;6549;53.128;8.182;2023-02-20T16:22:18;101300.28;;;9.48;100.00
12969;BME280;6549;53.128;8.182;2023-02-20T16:25:20;101306.22;;;9.51;100.00
12969;BME280;6549;53.128;8.182;2023-02-20T16:28:21;101295.25;;;9.51;100.00
12969;BME280;6549;53.128;8.182;2023-02-20T16:32:08;101305.47;;;9.54;100.00
12969;BME280;6549;53.128;8.182;2023-02-20T16:34:54;101302.97;;;9.45;100.00
12969;BME280;6549;53.128;8.182;2023-02-20T16:37:54;101307.66;;;9.44;100.00
12969;BME280;6549;53.128;8.182;2023-02-20T16:40:55;101300.78;;;9.54;100.00
12969;BME280;6549;53.128;8.182;2023-02-20T16:43:55;101308.97;;;9.51;100.00
12969;BME280;6549;53.128;8.182;2023-02-20T16:46:55;101299.88;;;9.46;100.00
12969;BME280;6549;53.128;8.182;2023-02-20T16:49:56;101307.44;;;9.53;100.00
12969;BME280;6549;53.128;8.182;2023-02-20T16:53:00;101304.31;;;9.55;100.00
12969;BME280;6549;53.128;8.182;2023-02-20T16:56:02;101314.44;;;9.51;100.00
12969;BME280;6549;53.128;8.182;2023-02-20T16:59:02;101307.53;;;9.37;100.00
12969;BME280;6549;53.128;8.182;2023-02-20T17:02:03;101314.19;;;9.36;100.00
12969;BME280;6549;53.128;8.182;2023-02-20T17:05:04;101316.19;;;9.39;100.00
12969;BME280;6549;53.128;8.182;2023-02-20T17:08:05;101324.34;;;9.36;100.00
12969;BME280;6549;53.128;8.182;2023-02-20T17:11:05;101326.53;;;9.27;100.00
12969;BME280;6549;53.128;8.182;2023-02-20T17:14:06;101316.34;;;9.27;100.00
12969;BME280;6549;53.128;8.182;2023-02-20T17:17:06;101316.22;;;9.20;100.00
12969;BME280;6549;53.128;8.182;2023-02-20T17:20:10;101323.94;;;9.15;100.00
12969;BME280;6549;53.128;8.182;2023-02-20T17:23:11;101314.13;;;9.14;100.00
12969;BME280;6549;53.128;8.182;2023-02-20T17:26:11;101322.34;;;9.14;100.00
12969;BME280;6549;53.128;8.182;2023-02-20T17:29:12;101323.88;;;9.11;100.00
12969;BME280;6549;53.128;8.182;2023-02-20T17:32:13;101320.69;;;9.09;100.00